sensor_id;sensor_type;location;lat;lon;timestamp;temperature;humidity
26336;DHT22;14047;50.936;4.654;2023-06-10T00:01:45;21.80;99.90
26336;DHT22;14047;50.936;4.654;2023-06-10T00:04:15;21.80;99.90
26336;DHT22;14047;50.936;4.654;2023-06-10T00:06:43;21.80;99.90
26336;DHT22;14047;50.936;4.654;2023-06-10T00:09:09;21.70;99.90
26336;DHT22;14047;50.936;4.654;2023-06-10T00:11:40;21.60;99.90
26336;DHT22;14047;50.936;4.654;2023-06-10T00:14:06;21.60;99.90
26336;DHT22;14047;50.936;4.654;2023-06-10T00:16:33;21.70;99.90
26336;DHT22;14047;50.936;4.654;2023-06-10T00:19:03;21.70;99.90
26336;DHT22;14047;50.936;4.654;2023-06-10T00:21:34;21.70;99.90
26336;DHT22;14047;50.936;4.654;2023-06-10T00:24:07;21.70;99.90
26336;DHT22;14047;50.936;4.654;2023-06-10T00:26:35;21.70;99.90
26336;DHT22;14047;50.936;4.654;2023-06-10T00:29:01;21.70;99.90
26336;DHT22;14047;50.936;4.654;2023-06-10T00:31:27;21.60;99.90
26336;DHT22;14047;50.936;4.654;2023-06-10T00:33:53;21.50;99.90
26336;DHT22;14047;50.936;4.654;2023-06-10T00:36:20;21.50;99.90
26336;DHT22;14047;50.936;4.654;2023-06-10T00:38:46;21.30;99.90
26336;DHT22;14047;50.936;4.654;2023-06-10T00:41:12;21.20;99.90
26336;DHT22;14047;50.936;4.654;2023-06-10T00:43:38;21.10;99.90
26336;DHT22;14047;50.936;4.654;2023-06-10T00:46:04;21.00;99.90
26336;DHT22;14047;50.936;4.654;2023-06-10T00:48:31;21.00;99.90
26336;DHT22;14047;50.936;4.654;2023-06-10T00:50:57;21.00;99.90
26336;DHT22;14047;50.936;4.654;2023-06-10T00:53:24;21.00;99.90
26336;DHT22;14047;50.936;4.654;2023-06-10T00:55:50;21.10;99.90
26336;DHT22;14047;50.936;4.654;2023-06-10T00:58:16;21.10;99.90
26336;DHT22;14047;50.936;4.654;2023-06-10T01:00:43;21.10;99.90
26336;DHT22;14047;50.936;4.654;2023-06-10T01:03:11;21.00;99.90
26336;DHT22;14047;50.936;4.654;2023-06-10T01:05:38;21.00;99.90
26336;DHT22;14047;50.936;4.654;2023-06-10T01:08:27;20.80;99.90
26336;DHT22;14047;50.936;4.654;2023-06-10T01:10:57;20.60;99.90
26336;DHT22;14047;50.936;4.654;2023-06-10T01:13:25;20.50;99.90
26336;DHT22;14047;50.936;4.654;2023-06-10T01:15:58;20.40;99.90
26336;DHT22;14047;50.936;4.654;2023-06-10T01:18:30;20.30;99.90
26336;DHT22;14047;50.936;4.654;2023-06-10T01:20:58;20.30;99.90
26336;DHT22;14047;50.936;4.654;2023-06-10T01:23:24;20.30;99.90
26336;DHT22;14047;50.936;4.654;2023-06-10T01:26:03;20.20;99.90
26336;DHT22;14047;50.936;4.654;2023-06-10T01:29:33;20.20;99.90
26336;DHT22;14047;50.936;4.654;2023-06-10T01:31:51;20.10;99.90
26336;DHT22;14047;50.936;4.654;2023-06-10T01:34:21;20.10;99.90
26336;DHT22;14047;50.936;4.654;2023-06-10T01:36:50;20.10;99.90
26336;DHT22;14047;50.936;4.654;2023-06-10T01:39:18;20.10;99.90
26336;DHT22;14047;50.936;4.654;2023-06-10T01:41:48;20.10;99.90
26336;DHT22;14047;50.936;4.654;2023-06-10T01:44:21;20.00;99.90
26336;DHT22;14047;50.936;4.654;2023-06-10T01:46:47;20.00;99.90
26336;DHT22;14047;50.936;4.654;2023-06-10T01:49:13;20.00;99.90
26336;DHT22;14047;50.936;4.654;2023-06-10T01:51:39;20.00;99.90
26336;DHT22;14047;50.936;4.654;2023-06-10T01:54:06;20.00;99.90
26336;DHT22;14047;50.936;4.654;2023-06-10T01:56:33;20.00;99.90
26336;DHT22;14047;50.936;4.654;2023-06-10T01:58:59;20.00;99.90
26336;DHT22;14047;50.936;4.654;2023-06-10T02:01:25;19.90;99.90
26336;DHT22;14047;50.936;4.654;2023-06-10T02:03:52;19.90;99.90
26336;DHT22;14047;50.936;4.654;2023-06-10T02:06:18;19.80;99.90
26336;DHT22;14047;50.936;4.654;2023-06-10T02:08:44;19.80;99.90
26336;DHT22;14047;50.936;4.654;2023-06-10T02:11:10;19.70;99.90
26336;DHT22;14047;50.936;4.654;2023-06-10T02:13:36;19.70;99.90
26336;DHT22;14047;50.936;4.654;2023-06-10T02:16:01;19.60;99.90
26336;DHT22;14047;50.936;4.654;2023-06-10T02:18:29;19.60;99.90
26336;DHT22;14047;50.936;4.654;2023-06-10T02:20:55;19.50;99.90
26336;DHT22;14047;50.936;4.654;2023-06-10T02:23:22;19.40;99.90
26336;DHT22;14047;50.936;4.654;2023-06-10T02:25:47;19.40;99.90
26336;DHT22;14047;50.936;4.654;2023-06-10T02:28:14;19.40;99.90
26336;DHT22;14047;50.936;4.654;2023-06-10T02:30:41;19.30;99.90
26336;DHT22;14047;50.936;4.654;2023-06-10T02:33:07;19.30;99.90
26336;DHT22;14047;50.936;4.654;2023-06-10T02:35:38;19.30;99.90
26336;DHT22;14047;50.936;4.654;2023-06-10T02:38:04;19.30;99.90
26336;DHT22;14047;50.936;4.654;2023-06-10T02:40:32;19.30;99.90
26336;DHT22;14047;50.936;4.654;2023-06-10T02:42:58;19.10;99.90
26336;DHT22;14047;50.936;4.654;2023-06-10T02:45:25;19.10;99.90
26336;DHT22;14047;50.936;4.654;2023-06-10T02:47:51;19.10;99.90
26336;DHT22;14047;50.936;4.654;2023-06-10T02:50:18;19.10;99.90
26336;DHT22;14047;50.936;4.654;2023-06-10T02:53:04;19.10;99.90
26336;DHT22;14047;50.936;4.654;2023-06-10T02:55:32;19.10;99.90
26336;DHT22;14047;50.936;4.654;2023-06-10T02:58:02;19.00;99.90
26336;DHT22;14047;50.936;4.654;2023-06-10T03:00:29;19.00;99.90
26336;DHT22;14047;50.936;4.654;2023-06-10T03:02:55;19.00;99.90
26336;DHT22;14047;50.936;4.654;2023-06-10T03:05:26;18.90;99.90
26336;DHT22;14047;50.936;4.654;2023-06-10T03:07:55;18.90;99.90
26336;DHT22;14047;50.936;4.654;2023-06-10T03:10:22;18.90;99.90
26336;DHT22;14047;50.936;4.654;2023-06-10T03:12:48;18.80;99.90
26336;DHT22;14047;50.936;4.654;2023-06-10T03:15:14;18.80;99.90
26336;DHT22;14047;50.936;4.654;2023-06-10T03:17:41;18.70;99.90
26336;DHT22;14047;50.936;4.654;2023-06-10T03:20:07;18.70;99.90
26336;DHT22;14047;50.936;4.654;2023-06-10T03:22:36;18.70;99.90
26336;DHT22;14047;50.936;4.654;2023-06-10T03:25:11;18.60;99.90
26336;DHT22;14047;50.936;4.654;2023-06-10T03:27:42;18.60;99.90
26336;DHT22;14047;50.936;4.654;2023-06-10T03:30:09;18.60;99.90
26336;DHT22;14047;50.936;4.654;2023-06-10T03:32:36;18.60;99.90
26336;DHT22;14047;50.936;4.654;2023-06-10T03:35:02;18.60;99.90
26336;DHT22;14047;50.936;4.654;2023-06-10T03:37:30;18.60;99.90
26336;DHT22;14047;50.936;4.654;2023-06-10T03:39:56;18.60;99.90
26336;DHT22;14047;50.936;4.654;2023-06-10T03:42:23;18.50;99.90
26336;DHT22;14047;50.936;4.654;2023-06-10T03:44:49;18.50;99.90
26336;DHT22;14047;50.936;4.654;2023-06-10T03:47:15;18.50;99.90
26336;DHT22;14047;50.936;4.654;2023-06-10T03:49:42;18.50;99.90
26336;DHT22;14047;50.936;4.654;2023-06-10T03:52:08;18.40;99.90
26336;DHT22;14047;50.936;4.654;2023-06-10T03:54:34;18.60;99.90
26336;DHT22;14047;50.936;4.654;2023-06-10T03:57:00;18.60;99.90
26336;DHT22;14047;50.936;4.654;2023-06-10T03:59:26;18.60;99.90
26336;DHT22;14047;50.936;4.654;2023-06-10T04:01:52;18.70;99.90
26336;DHT22;14047;50.936;4.654;2023-06-10T04:04:18;18.70;99.90
26336;DHT22;14047;50.936;4.654;2023-06-10T04:06:45;18.80;99.90
26336;DHT22;14047;50.936;4.654;2023-06-10T04:09:12;18.90;99.90
26336;DHT22;14047;50.936;4.654;2023-06-10T04:11:39;19.10;99.90
26336;DHT22;14047;50.936;4.654;2023-06-10T04:14:05;19.30;99.90
26336;DHT22;14047;50.936;4.654;2023-06-10T04:16:31;19.50;99.90
26336;DHT22;14047;50.936;4.654;2023-06-10T04:18:59;19.70;99.90
26336;DHT22;14047;50.936;4.654;2023-06-10T04:21:29;19.90;99.90
26336;DHT22;14047;50.936;4.654;2023-06-10T04:23:54;20.00;99.90
26336;DHT22;14047;50.936;4.654;2023-06-10T04:26:20;20.30;99.90
26336;DHT22;14047;50.936;4.654;2023-06-10T04:28:47;20.50;99.90
26336;DHT22;14047;50.936;4.654;2023-06-10T04:31:13;20.70;99.90
26336;DHT22;14047;50.936;4.654;2023-06-10T04:33:40;21.00;99.90
26336;DHT22;14047;50.936;4.654;2023-06-10T04:36:06;21.20;99.90
26336;DHT22;14047;50.936;4.654;2023-06-10T04:38:33;21.50;99.90
26336;DHT22;14047;50.936;4.654;2023-06-10T04:41:00;21.60;99.90
26336;DHT22;14047;50.936;4.654;2023-06-10T04:43:29;21.70;99.90
26336;DHT22;14047;50.936;4.654;2023-06-10T04:45:56;21.70;99.90
26336;DHT22;14047;50.936;4.654;2023-06-10T04:48:25;21.60;99.90
26336;DHT22;14047;50.936;4.654;2023-06-10T04:50:53;21.60;99.90
26336;DHT22;14047;50.936;4.654;2023-06-10T04:53:18;21.60;99.90
26336;DHT22;14047;50.936;4.654;2023-06-10T04:55:46;21.60;99.90
26336;DHT22;14047;50.936;4.654;2023-06-10T04:58:12;21.60;99.90
26336;DHT22;14047;50.936;4.654;2023-06-10T05:00:38;21.60;99.90
26336;DHT22;14047;50.936;4.654;2023-06-10T05:03:04;21.50;99.90
26336;DHT22;14047;50.936;4.654;2023-06-10T05:05:29;21.50;99.90
26336;DHT22;14047;50.936;4.654;2023-06-10T05:07:55;21.10;99.90
26336;DHT22;14047;50.936;4.654;2023-06-10T05:10:21;21.20;99.90
26336;DHT22;14047;50.936;4.654;2023-06-10T05:12:47;21.20;99.90
26336;DHT22;14047;50.936;4.654;2023-06-10T05:15:13;21.30;99.90
26336;DHT22;14047;50.936;4.654;2023-06-10T05:17:39;21.30;99.90
26336;DHT22;14047;50.936;4.654;2023-06-10T05:20:06;21.40;99.90
26336;DHT22;14047;50.936;4.654;2023-06-10T05:22:32;21.50;99.90
26336;DHT22;14047;50.936;4.654;2023-06-10T05:24:58;21.60;99.90
26336;DHT22;14047;50.936;4.654;2023-06-10T05:27:24;21.70;99.90
26336;DHT22;14047;50.936;4.654;2023-06-10T05:29:50;21.80;99.90
26336;DHT22;14047;50.936;4.654;2023-06-10T05:32:17;21.90;99.90
26336;DHT22;14047;50.936;4.654;2023-06-10T05:34:43;22.00;99.90
26336;DHT22;14047;50.936;4.654;2023-06-10T05:37:09;22.10;99.90
26336;DHT22;14047;50.936;4.654;2023-06-10T05:39:36;22.20;99.90
26336;DHT22;14047;50.936;4.654;2023-06-10T05:42:06;22.30;99.90
26336;DHT22;14047;50.936;4.654;2023-06-10T05:44:33;22.40;99.90
26336;DHT22;14047;50.936;4.654;2023-06-10T05:46:59;22.50;99.90
26336;DHT22;14047;50.936;4.654;2023-06-10T05:49:25;22.60;99.90
26336;DHT22;14047;50.936;4.654;2023-06-10T05:51:51;22.50;99.90
26336;DHT22;14047;50.936;4.654;2023-06-10T05:54:18;22.50;99.90
26336;DHT22;14047;50.936;4.654;2023-06-10T05:56:44;22.50;99.90
26336;DHT22;14047;50.936;4.654;2023-06-10T05:59:10;22.60;99.90
26336;DHT22;14047;50.936;4.654;2023-06-10T06:01:36;22.70;99.90
26336;DHT22;14047;50.936;4.654;2023-06-10T06:04:02;22.60;99.90
26336;DHT22;14047;50.936;4.654;2023-06-10T06:06:28;22.60;99.90
26336;DHT22;14047;50.936;4.654;2023-06-10T06:08:54;22.50;99.90
26336;DHT22;14047;50.936;4.654;2023-06-10T06:11:20;22.50;99.90
26336;DHT22;14047;50.936;4.654;2023-06-10T06:13:46;22.70;99.90
26336;DHT22;14047;50.936;4.654;2023-06-10T06:16:13;22.70;99.90
26336;DHT22;14047;50.936;4.654;2023-06-10T06:18:39;22.90;99.90
26336;DHT22;14047;50.936;4.654;2023-06-10T06:21:05;22.90;99.90
26336;DHT22;14047;50.936;4.654;2023-06-10T06:23:31;23.00;99.90
26336;DHT22;14047;50.936;4.654;2023-06-10T06:25:57;23.10;99.90
26336;DHT22;14047;50.936;4.654;2023-06-10T06:28:23;23.30;99.90
26336;DHT22;14047;50.936;4.654;2023-06-10T06:30:55;23.20;99.90
26336;DHT22;14047;50.936;4.654;2023-06-10T06:33:21;23.40;99.90
26336;DHT22;14047;50.936;4.654;2023-06-10T06:35:47;23.40;99.90
26336;DHT22;14047;50.936;4.654;2023-06-10T06:38:13;23.60;99.90
26336;DHT22;14047;50.936;4.654;2023-06-10T06:40:39;23.70;99.90
26336;DHT22;14047;50.936;4.654;2023-06-10T06:43:05;23.60;99.90
26336;DHT22;14047;50.936;4.654;2023-06-10T06:45:50;23.70;99.90
26336;DHT22;14047;50.936;4.654;2023-06-10T06:48:16;23.80;99.90
26336;DHT22;14047;50.936;4.654;2023-06-10T06:50:42;23.80;99.90
26336;DHT22;14047;50.936;4.654;2023-06-10T06:53:08;23.90;99.90
26336;DHT22;14047;50.936;4.654;2023-06-10T06:55:34;24.00;99.90
26336;DHT22;14047;50.936;4.654;2023-06-10T06:58:00;24.20;99.90
26336;DHT22;14047;50.936;4.654;2023-06-10T07:00:28;24.20;99.90
26336;DHT22;14047;50.936;4.654;2023-06-10T07:02:54;24.30;99.90
26336;DHT22;14047;50.936;4.654;2023-06-10T07:05:21;24.50;99.90
26336;DHT22;14047;50.936;4.654;2023-06-10T07:07:46;24.50;99.90
26336;DHT22;14047;50.936;4.654;2023-06-10T07:10:12;24.60;99.90
26336;DHT22;14047;50.936;4.654;2023-06-10T07:12:40;24.70;99.90
26336;DHT22;14047;50.936;4.654;2023-06-10T07:15:06;24.60;99.90
26336;DHT22;14047;50.936;4.654;2023-06-10T07:17:32;24.80;99.90
26336;DHT22;14047;50.936;4.654;2023-06-10T07:20:00;24.90;99.90
26336;DHT22;14047;50.936;4.654;2023-06-10T07:22:26;25.10;99.90
26336;DHT22;14047;50.936;4.654;2023-06-10T07:24:52;25.20;99.90
26336;DHT22;14047;50.936;4.654;2023-06-10T07:27:20;25.30;99.90
26336;DHT22;14047;50.936;4.654;2023-06-10T07:29:46;25.30;99.90
26336;DHT22;14047;50.936;4.654;2023-06-10T07:32:12;25.20;99.90
26336;DHT22;14047;50.936;4.654;2023-06-10T07:34:38;25.30;99.90
26336;DHT22;14047;50.936;4.654;2023-06-10T07:37:04;25.50;99.90
26336;DHT22;14047;50.936;4.654;2023-06-10T07:39:30;25.60;99.90
26336;DHT22;14047;50.936;4.654;2023-06-10T07:41:56;25.70;99.90
26336;DHT22;14047;50.936;4.654;2023-06-10T07:44:24;25.90;99.90
26336;DHT22;14047;50.936;4.654;2023-06-10T07:46:49;25.90;99.90
26336;DHT22;14047;50.936;4.654;2023-06-10T07:49:15;25.80;99.90
26336;DHT22;14047;50.936;4.654;2023-06-10T07:51:41;25.90;99.90
26336;DHT22;14047;50.936;4.654;2023-06-10T07:54:07;26.10;99.90
26336;DHT22;14047;50.936;4.654;2023-06-10T07:56:33;26.10;99.90
26336;DHT22;14047;50.936;4.654;2023-06-10T07:58:59;26.20;99.90
26336;DHT22;14047;50.936;4.654;2023-06-10T08:01:25;26.30;99.90
26336;DHT22;14047;50.936;4.654;2023-06-10T08:03:51;26.50;99.90
26336;DHT22;14047;50.936;4.654;2023-06-10T08:06:17;26.50;99.90
26336;DHT22;14047;50.936;4.654;2023-06-10T08:08:44;26.60;99.90
26336;DHT22;14047;50.936;4.654;2023-06-10T08:11:12;26.70;99.90
26336;DHT22;14047;50.936;4.654;2023-06-10T08:13:37;26.70;99.90
26336;DHT22;14047;50.936;4.654;2023-06-10T08:16:04;26.60;99.90
26336;DHT22;14047;50.936;4.654;2023-06-10T08:18:30;26.70;99.90
26336;DHT22;14047;50.936;4.654;2023-06-10T08:20:56;26.90;99.90
26336;DHT22;14047;50.936;4.654;2023-06-10T08:23:22;27.10;99.90
26336;DHT22;14047;50.936;4.654;2023-06-10T08:25:48;27.20;99.90
26336;DHT22;14047;50.936;4.654;2023-06-10T08:28:14;27.30;99.90
26336;DHT22;14047;50.936;4.654;2023-06-10T08:30:39;27.50;99.90
26336;DHT22;14047;50.936;4.654;2023-06-10T08:33:05;27.60;99.90
26336;DHT22;14047;50.936;4.654;2023-06-10T08:35:31;27.80;99.90
26336;DHT22;14047;50.936;4.654;2023-06-10T08:37:57;27.90;99.90
26336;DHT22;14047;50.936;4.654;2023-06-10T08:40:23;28.00;99.90
26336;DHT22;14047;50.936;4.654;2023-06-10T08:43:08;27.90;99.90
26336;DHT22;14047;50.936;4.654;2023-06-10T08:45:37;28.00;99.90
26336;DHT22;14047;50.936;4.654;2023-06-10T08:48:04;28.20;99.90
26336;DHT22;14047;50.936;4.654;2023-06-10T08:50:37;28.40;99.90
26336;DHT22;14047;50.936;4.654;2023-06-10T08:53:07;28.60;99.90
26336;DHT22;14047;50.936;4.654;2023-06-10T08:55:37;28.90;99.90
26336;DHT22;14047;50.936;4.654;2023-06-10T08:58:03;28.80;99.90
26336;DHT22;14047;50.936;4.654;2023-06-10T09:00:31;28.80;99.90
26336;DHT22;14047;50.936;4.654;2023-06-10T09:02:58;28.90;99.90
26336;DHT22;14047;50.936;4.654;2023-06-10T09:05:24;29.00;99.90
26336;DHT22;14047;50.936;4.654;2023-06-10T09:07:52;29.30;99.90
26336;DHT22;14047;50.936;4.654;2023-06-10T09:10:19;29.30;99.90
26336;DHT22;14047;50.936;4.654;2023-06-10T09:12:45;29.40;99.90
26336;DHT22;14047;50.936;4.654;2023-06-10T09:15:11;29.40;99.90
26336;DHT22;14047;50.936;4.654;2023-06-10T09:17:38;29.40;99.90
26336;DHT22;14047;50.936;4.654;2023-06-10T09:20:09;29.50;99.90
26336;DHT22;14047;50.936;4.654;2023-06-10T09:22:36;29.40;99.90
26336;DHT22;14047;50.936;4.654;2023-06-10T09:25:07;29.50;99.90
26336;DHT22;14047;50.936;4.654;2023-06-10T09:27:46;29.60;99.90
26336;DHT22;14047;50.936;4.654;2023-06-10T09:30:30;29.40;99.90
26336;DHT22;14047;50.936;4.654;2023-06-10T09:33:00;29.50;99.90
26336;DHT22;14047;50.936;4.654;2023-06-10T09:35:28;29.40;99.90
26336;DHT22;14047;50.936;4.654;2023-06-10T09:38:00;29.20;99.90
26336;DHT22;14047;50.936;4.654;2023-06-10T09:40:28;29.20;99.90
26336;DHT22;14047;50.936;4.654;2023-06-10T09:42:56;29.40;99.90
26336;DHT22;14047;50.936;4.654;2023-06-10T09:45:23;29.60;99.90
26336;DHT22;14047;50.936;4.654;2023-06-10T09:47:54;29.70;99.90
26336;DHT22;14047;50.936;4.654;2023-06-10T09:50:20;29.90;99.90
26336;DHT22;14047;50.936;4.654;2023-06-10T09:52:47;29.70;99.90
26336;DHT22;14047;50.936;4.654;2023-06-10T09:55:13;29.80;99.90
26336;DHT22;14047;50.936;4.654;2023-06-10T09:57:40;29.70;99.90
26336;DHT22;14047;50.936;4.654;2023-06-10T10:00:08;29.80;99.90
26336;DHT22;14047;50.936;4.654;2023-06-10T10:05:13;29.90;99.90
26336;DHT22;14047;50.936;4.654;2023-06-10T10:07:40;30.00;99.90
26336;DHT22;14047;50.936;4.654;2023-06-10T10:10:06;30.10;99.90
26336;DHT22;14047;50.936;4.654;2023-06-10T10:12:36;30.40;99.90
26336;DHT22;14047;50.936;4.654;2023-06-10T10:15:02;30.60;99.90
26336;DHT22;14047;50.936;4.654;2023-06-10T10:17:29;30.50;99.90
26336;DHT22;14047;50.936;4.654;2023-06-10T10:20:00;30.20;99.90
26336;DHT22;14047;50.936;4.654;2023-06-10T10:22:40;30.40;99.90
26336;DHT22;14047;50.936;4.654;2023-06-10T10:25:11;30.60;99.90
26336;DHT22;14047;50.936;4.654;2023-06-10T10:27:48;30.80;99.90
26336;DHT22;14047;50.936;4.654;2023-06-10T10:30:17;30.80;99.90
26336;DHT22;14047;50.936;4.654;2023-06-10T10:33:05;30.90;99.90
26336;DHT22;14047;50.936;4.654;2023-06-10T10:35:34;31.00;99.90
26336;DHT22;14047;50.936;4.654;2023-06-10T10:38:02;31.10;99.90
26336;DHT22;14047;50.936;4.654;2023-06-10T10:40:29;31.30;99.90
26336;DHT22;14047;50.936;4.654;2023-06-10T10:42:56;31.40;99.90
26336;DHT22;14047;50.936;4.654;2023-06-10T10:45:22;31.50;99.90
26336;DHT22;14047;50.936;4.654;2023-06-10T10:47:52;31.60;99.90
26336;DHT22;14047;50.936;4.654;2023-06-10T10:50:20;31.70;99.90
26336;DHT22;14047;50.936;4.654;2023-06-10T10:53:00;31.70;99.90
26336;DHT22;14047;50.936;4.654;2023-06-10T10:55:27;31.70;99.90
26336;DHT22;14047;50.936;4.654;2023-06-10T10:57:55;31.90;99.90
26336;DHT22;14047;50.936;4.654;2023-06-10T11:00:34;32.20;99.90
26336;DHT22;14047;50.936;4.654;2023-06-10T11:03:14;32.30;99.90
26336;DHT22;14047;50.936;4.654;2023-06-10T11:05:43;32.40;97.40
26336;DHT22;14047;50.936;4.654;2023-06-10T11:08:13;32.60;97.00
26336;DHT22;14047;50.936;4.654;2023-06-10T11:10:41;32.70;96.20
26336;DHT22;14047;50.936;4.654;2023-06-10T11:13:14;32.70;96.60
26336;DHT22;14047;50.936;4.654;2023-06-10T11:15:48;32.70;93.60
26336;DHT22;14047;50.936;4.654;2023-06-10T11:18:24;32.60;93.90
26336;DHT22;14047;50.936;4.654;2023-06-10T11:28:38;33.00;96.90
26336;DHT22;14047;50.936;4.654;2023-06-10T11:31:03;33.30;94.40
26336;DHT22;14047;50.936;4.654;2023-06-10T11:33:30;33.50;93.30
26336;DHT22;14047;50.936;4.654;2023-06-10T11:35:56;33.40;94.10
26336;DHT22;14047;50.936;4.654;2023-06-10T11:38:24;33.50;92.70
26336;DHT22;14047;50.936;4.654;2023-06-10T11:40:51;33.50;93.20
26336;DHT22;14047;50.936;4.654;2023-06-10T11:43:18;33.50;92.60
26336;DHT22;14047;50.936;4.654;2023-06-10T11:45:44;33.20;91.50
26336;DHT22;14047;50.936;4.654;2023-06-10T11:48:10;32.60;92.50
26336;DHT22;14047;50.936;4.654;2023-06-10T11:50:38;32.30;92.50
26336;DHT22;14047;50.936;4.654;2023-06-10T11:53:04;31.90;93.50
26336;DHT22;14047;50.936;4.654;2023-06-10T11:55:46;32.20;92.00
26336;DHT22;14047;50.936;4.654;2023-06-10T11:58:16;32.40;92.80
26336;DHT22;14047;50.936;4.654;2023-06-10T12:00:50;32.50;92.30
26336;DHT22;14047;50.936;4.654;2023-06-10T12:03:17;32.60;92.00
26336;DHT22;14047;50.936;4.654;2023-06-10T12:05:57;32.60;91.60
26336;DHT22;14047;50.936;4.654;2023-06-10T12:08:24;32.90;89.60
26336;DHT22;14047;50.936;4.654;2023-06-10T12:10:50;33.00;87.10
26336;DHT22;14047;50.936;4.654;2023-06-10T12:13:16;33.20;89.40
26336;DHT22;14047;50.936;4.654;2023-06-10T12:15:45;33.40;86.60
26336;DHT22;14047;50.936;4.654;2023-06-10T12:18:22;33.60;86.20
26336;DHT22;14047;50.936;4.654;2023-06-10T12:20:49;33.80;85.80
26336;DHT22;14047;50.936;4.654;2023-06-10T12:23:17;34.10;84.30
26336;DHT22;14047;50.936;4.654;2023-06-10T12:25:51;34.20;83.90
26336;DHT22;14047;50.936;4.654;2023-06-10T12:28:26;34.20;84.20
26336;DHT22;14047;50.936;4.654;2023-06-10T12:31:06;34.50;83.90
26336;DHT22;14047;50.936;4.654;2023-06-10T12:33:33;34.60;81.30
26336;DHT22;14047;50.936;4.654;2023-06-10T12:35:59;34.60;77.40
26336;DHT22;14047;50.936;4.654;2023-06-10T12:38:26;34.50;76.30
26336;DHT22;14047;50.936;4.654;2023-06-10T12:41:02;34.70;78.00
26336;DHT22;14047;50.936;4.654;2023-06-10T12:43:31;34.70;77.50
26336;DHT22;14047;50.936;4.654;2023-06-10T12:46:10;34.60;75.00
26336;DHT22;14047;50.936;4.654;2023-06-10T12:48:49;34.40;76.70
26336;DHT22;14047;50.936;4.654;2023-06-10T12:51:17;34.30;78.90
26336;DHT22;14047;50.936;4.654;2023-06-10T12:53:43;34.30;77.30
26336;DHT22;14047;50.936;4.654;2023-06-10T12:56:10;34.50;77.90
26336;DHT22;14047;50.936;4.654;2023-06-10T12:58:36;34.60;75.70
26336;DHT22;14047;50.936;4.654;2023-06-10T13:01:01;34.60;75.10
26336;DHT22;14047;50.936;4.654;2023-06-10T13:03:27;34.80;76.00
26336;DHT22;14047;50.936;4.654;2023-06-10T13:05:53;34.80;76.20
26336;DHT22;14047;50.936;4.654;2023-06-10T13:08:19;34.80;75.10
26336;DHT22;14047;50.936;4.654;2023-06-10T13:10:45;34.90;75.30
26336;DHT22;14047;50.936;4.654;2023-06-10T13:13:11;35.10;77.50
26336;DHT22;14047;50.936;4.654;2023-06-10T13:15:37;35.40;76.40
26336;DHT22;14047;50.936;4.654;2023-06-10T13:18:04;35.60;73.90
26336;DHT22;14047;50.936;4.654;2023-06-10T13:20:30;35.70;74.80
26336;DHT22;14047;50.936;4.654;2023-06-10T13:22:57;34.80;75.50
26336;DHT22;14047;50.936;4.654;2023-06-10T13:25:22;34.40;77.30
26336;DHT22;14047;50.936;4.654;2023-06-10T13:27:48;34.50;76.70
26336;DHT22;14047;50.936;4.654;2023-06-10T13:30:14;34.50;75.00
26336;DHT22;14047;50.936;4.654;2023-06-10T13:32:40;34.60;76.70
26336;DHT22;14047;50.936;4.654;2023-06-10T13:35:07;35.00;75.40
26336;DHT22;14047;50.936;4.654;2023-06-10T13:37:33;35.50;73.90
26336;DHT22;14047;50.936;4.654;2023-06-10T13:40:00;35.80;72.20
26336;DHT22;14047;50.936;4.654;2023-06-10T13:42:26;35.90;70.60
26336;DHT22;14047;50.936;4.654;2023-06-10T13:44:52;36.00;71.60
26336;DHT22;14047;50.936;4.654;2023-06-10T13:47:18;35.90;71.70
26336;DHT22;14047;50.936;4.654;2023-06-10T13:49:44;35.90;70.50
26336;DHT22;14047;50.936;4.654;2023-06-10T13:52:10;35.30;70.80
26336;DHT22;14047;50.936;4.654;2023-06-10T13:54:36;35.50;71.60
26336;DHT22;14047;50.936;4.654;2023-06-10T13:57:03;35.00;71.90
26336;DHT22;14047;50.936;4.654;2023-06-10T13:59:29;34.90;70.70
26336;DHT22;14047;50.936;4.654;2023-06-10T14:01:55;34.80;70.80
26336;DHT22;14047;50.936;4.654;2023-06-10T14:04:22;34.80;70.80
26336;DHT22;14047;50.936;4.654;2023-06-10T14:06:48;35.10;68.50
26336;DHT22;14047;50.936;4.654;2023-06-10T14:09:14;35.20;70.40
26336;DHT22;14047;50.936;4.654;2023-06-10T14:11:40;35.80;69.10
26336;DHT22;14047;50.936;4.654;2023-06-10T14:14:07;36.40;69.80
26336;DHT22;14047;50.936;4.654;2023-06-10T14:16:33;37.30;68.30
26336;DHT22;14047;50.936;4.654;2023-06-10T14:18:58;38.50;66.20
26336;DHT22;14047;50.936;4.654;2023-06-10T14:21:24;39.60;63.40
26336;DHT22;14047;50.936;4.654;2023-06-10T14:23:51;40.20;62.30
26336;DHT22;14047;50.936;4.654;2023-06-10T14:26:19;40.90;60.10
26336;DHT22;14047;50.936;4.654;2023-06-10T14:28:47;41.20;57.90
26336;DHT22;14047;50.936;4.654;2023-06-10T14:31:13;41.40;57.60
26336;DHT22;14047;50.936;4.654;2023-06-10T14:33:39;41.40;56.80
26336;DHT22;14047;50.936;4.654;2023-06-10T14:36:07;41.00;56.70
26336;DHT22;14047;50.936;4.654;2023-06-10T14:38:33;41.00;56.70
26336;DHT22;14047;50.936;4.654;2023-06-10T14:40:59;41.60;54.80
26336;DHT22;14047;50.936;4.654;2023-06-10T14:43:25;41.40;56.10
26336;DHT22;14047;50.936;4.654;2023-06-10T14:45:51;39.40;56.70
26336;DHT22;14047;50.936;4.654;2023-06-10T14:48:17;39.50;56.90
26336;DHT22;14047;50.936;4.654;2023-06-10T14:50:43;40.00;55.80
26336;DHT22;14047;50.936;4.654;2023-06-10T14:53:12;40.70;55.70
26336;DHT22;14047;50.936;4.654;2023-06-10T14:55:38;41.40;54.90
26336;DHT22;14047;50.936;4.654;2023-06-10T14:58:04;42.00;54.10
26336;DHT22;14047;50.936;4.654;2023-06-10T15:00:30;42.20;53.40
26336;DHT22;14047;50.936;4.654;2023-06-10T15:02:56;42.10;51.80
26336;DHT22;14047;50.936;4.654;2023-06-10T15:05:23;42.20;51.40
26336;DHT22;14047;50.936;4.654;2023-06-10T15:07:50;41.80;51.50
26336;DHT22;14047;50.936;4.654;2023-06-10T15:10:16;42.20;50.80
26336;DHT22;14047;50.936;4.654;2023-06-10T15:12:43;42.50;50.60
26336;DHT22;14047;50.936;4.654;2023-06-10T15:15:09;42.80;50.80
26336;DHT22;14047;50.936;4.654;2023-06-10T15:17:36;41.80;52.70
26336;DHT22;14047;50.936;4.654;2023-06-10T15:20:02;42.40;51.90
26336;DHT22;14047;50.936;4.654;2023-06-10T15:22:28;42.70;52.30
26336;DHT22;14047;50.936;4.654;2023-06-10T15:24:54;43.00;51.20
26336;DHT22;14047;50.936;4.654;2023-06-10T15:27:21;41.70;51.90
26336;DHT22;14047;50.936;4.654;2023-06-10T15:29:47;39.50;54.50
26336;DHT22;14047;50.936;4.654;2023-06-10T15:32:13;39.90;54.40
26336;DHT22;14047;50.936;4.654;2023-06-10T15:34:39;40.50;54.30
26336;DHT22;14047;50.936;4.654;2023-06-10T15:37:05;40.50;54.10
26336;DHT22;14047;50.936;4.654;2023-06-10T15:39:31;40.80;53.80
26336;DHT22;14047;50.936;4.654;2023-06-10T15:41:57;40.60;53.50
26336;DHT22;14047;50.936;4.654;2023-06-10T15:44:23;40.50;53.50